sensor_id;sensor_type;location;lat;lon;timestamp;pressure;altitude;pressure_sealevel;temperature;humidity
78313;BME280;67568;47.438;21.408;2023-11-18T00:01:32;100022.84;;;5.91;100.00
78313;BME280;67568;47.438;21.408;2023-11-18T00:04:00;100016.00;;;5.93;100.00
78313;BME280;67568;47.438;21.408;2023-11-18T00:06:27;100022.84;;;5.85;100.00
78313;BME280;67568;47.438;21.408;2023-11-18T00:08:54;100028.63;;;5.89;100.00
78313;BME280;67568;47.438;21.408;2023-11-18T00:11:21;100026.41;;;5.91;100.00
78313;BME280;67568;47.438;21.408;2023-11-18T00:13:48;100024.25;;;5.93;100.00
78313;BME280;67568;47.438;21.408;2023-11-18T00:16:15;100032.75;;;5.97;100.00
78313;BME280;67568;47.438;21.408;2023-11-18T00:18:42;100033.56;;;5.97;100.00
78313;BME280;67568;47.438;21.408;2023-11-18T00:21:09;100033.56;;;5.92;100.00
78313;BME280;67568;47.438;21.408;2023-11-18T00:23:36;100038.53;;;5.85;100.00
78313;BME280;67568;47.438;21.408;2023-11-18T00:26:03;100038.81;;;5.83;99.63
78313;BME280;67568;47.438;21.408;2023-11-18T00:28:30;100052.53;;;5.89;100.00
78313;BME280;67568;47.438;21.408;2023-11-18T00:30:57;100049.53;;;5.90;99.78
78313;BME280;67568;47.438;21.408;2023-11-18T00:33:23;100051.16;;;5.91;100.00
78313;BME280;67568;47.438;21.408;2023-11-18T00:35:50;100054.19;;;5.90;99.24
78313;BME280;67568;47.438;21.408;2023-11-18T00:38:17;100059.69;;;5.90;97.82
78313;BME280;67568;47.438;21.408;2023-11-18T00:40:44;100060.78;;;5.89;98.78
78313;BME280;67568;47.438;21.408;2023-11-18T00:43:11;100056.94;;;5.90;99.96
78313;BME280;67568;47.438;21.408;2023-11-18T00:45:37;100067.66;;;5.86;98.43
78313;BME280;67568;47.438;21.408;2023-11-18T00:48:04;100067.13;;;5.89;98.46
78313;BME280;67568;47.438;21.408;2023-11-18T00:50:31;100070.69;;;5.79;96.60
78313;BME280;67568;47.438;21.408;2023-11-18T00:52:58;100074.81;;;5.72;93.99
78313;BME280;67568;47.438;21.408;2023-11-18T00:55:24;100067.13;;;5.79;97.40
78313;BME280;67568;47.438;21.408;2023-11-18T00:57:51;100083.88;;;5.88;99.05
78313;BME280;67568;47.438;21.408;2023-11-18T01:00:18;100083.34;;;5.80;97.37
78313;BME280;67568;47.438;21.408;2023-11-18T01:02:45;100088.03;;;5.80;95.90
78313;BME280;67568;47.438;21.408;2023-11-18T01:05:11;100087.19;;;5.69;93.41
78313;BME280;67568;47.438;21.408;2023-11-18T01:07:38;100094.06;;;5.72;94.86
78313;BME280;67568;47.438;21.408;2023-11-18T01:10:06;100091.06;;;5.68;93.21
78313;BME280;67568;47.438;21.408;2023-11-18T01:12:34;100085.56;;;5.73;94.38
78313;BME280;67568;47.438;21.408;2023-11-18T01:15:01;100103.72;;;5.64;93.76
78313;BME280;67568;47.438;21.408;2023-11-18T01:17:28;100093.81;;;5.73;93.92
78313;BME280;67568;47.438;21.408;2023-11-18T01:19:55;100102.59;;;5.80;94.05
78313;BME280;67568;47.438;21.408;2023-11-18T01:22:22;100094.06;;;5.77;95.05
78313;BME280;67568;47.438;21.408;2023-11-18T01:24:49;100105.63;;;5.79;95.02
78313;BME280;67568;47.438;21.408;2023-11-18T01:27:16;100101.50;;;5.86;94.28
78313;BME280;67568;47.438;21.408;2023-11-18T01:29:43;100110.31;;;5.78;91.63
78313;BME280;67568;47.438;21.408;2023-11-18T01:32:09;100108.63;;;5.88;95.37
78313;BME280;67568;47.438;21.408;2023-11-18T01:34:36;100110.00;;;5.90;94.31
78313;BME280;67568;47.438;21.408;2023-11-18T01:37:03;100108.63;;;5.82;91.96
78313;BME280;67568;47.438;21.408;2023-11-18T01:39:30;100110.28;;;5.89;95.76
78313;BME280;67568;47.438;21.408;2023-11-18T01:41:56;100114.13;;;5.82;93.74
78313;BME280;67568;47.438;21.408;2023-11-18T01:44:26;100115.22;;;5.92;95.58
78313;BME280;67568;47.438;21.408;2023-11-18T01:46:53;100109.50;;;5.93;94.98
78313;BME280;67568;47.438;21.408;2023-11-18T01:49:19;100115.22;;;5.92;93.94
78313;BME280;67568;47.438;21.408;2023-11-18T01:51:46;100110.84;;;5.91;94.22
78313;BME280;67568;47.438;21.408;2023-11-18T01:54:15;100119.63;;;5.93;94.92
78313;BME280;67568;47.438;21.408;2023-11-18T01:56:46;100111.13;;;5.94;95.90
78313;BME280;67568;47.438;21.408;2023-11-18T01:59:14;100119.91;;;5.86;92.39
78313;BME280;67568;47.438;21.408;2023-11-18T02:01:41;100119.63;;;5.88;93.16
78313;BME280;67568;47.438;21.408;2023-11-18T02:04:07;100117.69;;;5.88;93.88
78313;BME280;67568;47.438;21.408;2023-11-18T02:06:34;100125.69;;;5.84;93.18
78313;BME280;67568;47.438;21.408;2023-11-18T02:09:03;100125.94;;;5.88;94.64
78313;BME280;67568;47.438;21.408;2023-11-18T02:12:12;100129.25;;;5.90;95.46
78313;BME280;67568;47.438;21.408;2023-11-18T02:14:40;100132.81;;;5.91;95.02
78313;BME280;67568;47.438;21.408;2023-11-18T02:17:09;100135.56;;;5.91;95.18
78313;BME280;67568;47.438;21.408;2023-11-18T02:19:38;100130.63;;;5.88;93.47
78313;BME280;67568;47.438;21.408;2023-11-18T02:22:06;100140.00;;;5.86;93.75
78313;BME280;67568;47.438;21.408;2023-11-18T02:24:34;100138.06;;;5.92;95.16
78313;BME280;67568;47.438;21.408;2023-11-18T02:27:01;100140.00;;;5.86;92.28
78313;BME280;67568;47.438;21.408;2023-11-18T02:29:32;100133.38;;;5.93;94.76
78313;BME280;67568;47.438;21.408;2023-11-18T02:32:07;100137.50;;;5.90;94.69
78313;BME280;67568;47.438;21.408;2023-11-18T02:34:40;100139.97;;;5.92;94.76
78313;BME280;67568;47.438;21.408;2023-11-18T02:37:08;100144.94;;;5.95;94.65
78313;BME280;67568;47.438;21.408;2023-11-18T02:39:43;100144.38;;;5.82;91.02
78313;BME280;67568;47.438;21.408;2023-11-18T02:42:12;100141.09;;;5.96;93.93
78313;BME280;67568;47.438;21.408;2023-11-18T02:44:39;100150.19;;;5.96;93.60
78313;BME280;67568;47.438;21.408;2023-11-18T02:47:07;100153.47;;;6.03;94.44
78313;BME280;67568;47.438;21.408;2023-11-18T02:49:36;100154.56;;;6.07;94.88
78313;BME280;67568;47.438;21.408;2023-11-18T02:52:03;100147.13;;;6.08;93.02
78313;BME280;67568;47.438;21.408;2023-11-18T02:54:30;100154.84;;;6.01;92.87
78313;BME280;67568;47.438;21.408;2023-11-18T02:56:57;100162.00;;;6.07;93.91
78313;BME280;67568;47.438;21.408;2023-11-18T02:59:24;100163.63;;;6.08;93.60
78313;BME280;67568;47.438;21.408;2023-11-18T03:01:53;100177.13;;;6.10;93.39
78313;BME280;67568;47.438;21.408;2023-11-18T03:04:20;100178.50;;;6.07;94.11
78313;BME280;67568;47.438;21.408;2023-11-18T03:06:47;100176.31;;;6.09;93.68
78313;BME280;67568;47.438;21.408;2023-11-18T03:09:14;100182.34;;;6.06;94.99
78313;BME280;67568;47.438;21.408;2023-11-18T03:11:40;100184.81;;;6.07;94.05
78313;BME280;67568;47.438;21.408;2023-11-18T03:14:07;100188.94;;;6.05;94.90
78313;BME280;67568;47.438;21.408;2023-11-18T03:16:34;100196.63;;;6.08;94.28
78313;BME280;67568;47.438;21.408;2023-11-18T03:19:01;100195.25;;;6.05;93.40
78313;BME280;67568;47.438;21.408;2023-11-18T03:21:28;100196.09;;;6.06;94.46
78313;BME280;67568;47.438;21.408;2023-11-18T03:23:54;100193.34;;;5.96;91.98
78313;BME280;67568;47.438;21.408;2023-11-18T03:26:21;100191.13;;;6.03;92.82
78313;BME280;67568;47.438;21.408;2023-11-18T03:28:48;100195.25;;;6.00;93.00
78313;BME280;67568;47.438;21.408;2023-11-18T03:31:14;100201.06;;;6.04;93.42
78313;BME280;67568;47.438;21.408;2023-11-18T03:33:41;100198.03;;;5.95;91.35
78313;BME280;67568;47.438;21.408;2023-11-18T03:36:08;100209.88;;;6.01;92.84
78313;BME280;67568;47.438;21.408;2023-11-18T03:38:35;100204.63;;;5.99;92.87
78313;BME280;67568;47.438;21.408;2023-11-18T03:41:02;100199.69;;;6.01;92.96
78313;BME280;67568;47.438;21.408;2023-11-18T03:43:29;100197.47;;;5.98;91.95
78313;BME280;67568;47.438;21.408;2023-11-18T03:45:55;100204.06;;;5.97;92.48
78313;BME280;67568;47.438;21.408;2023-11-18T03:48:23;100204.06;;;5.92;92.22
78313;BME280;67568;47.438;21.408;2023-11-18T03:50:50;100208.19;;;5.95;90.71
78313;BME280;67568;47.438;21.408;2023-11-18T03:53:17;100212.03;;;5.83;89.47
78313;BME280;67568;47.438;21.408;2023-11-18T03:55:43;100220.03;;;5.95;92.26
78313;BME280;67568;47.438;21.408;2023-11-18T03:58:10;100220.00;;;5.90;91.76
78313;BME280;67568;47.438;21.408;2023-11-18T04:00:37;100220.03;;;5.95;92.37
78313;BME280;67568;47.438;21.408;2023-11-18T04:03:04;100212.59;;;5.96;91.38
78313;BME280;67568;47.438;21.408;2023-11-18T04:05:30;100215.34;;;5.96;91.20
78313;BME280;67568;47.438;21.408;2023-11-18T04:07:59;100224.13;;;6.03;90.80
78313;BME280;67568;47.438;21.408;2023-11-18T04:10:26;100230.75;;;6.02;90.80
78313;BME280;67568;47.438;21.408;2023-11-18T04:12:53;100232.13;;;6.10;90.99
78313;BME280;67568;47.438;21.408;2023-11-18T04:15:20;100229.91;;;6.12;90.02
78313;BME280;67568;47.438;21.408;2023-11-18T04:17:47;100234.59;;;6.11;90.98
78313;BME280;67568;47.438;21.408;2023-11-18T04:20:14;100232.97;;;6.10;90.62
78313;BME280;67568;47.438;21.408;2023-11-18T04:22:41;100230.19;;;6.10;90.36
78313;BME280;67568;47.438;21.408;2023-11-18T04:25:09;100236.81;;;6.09;90.90
78313;BME280;67568;47.438;21.408;2023-11-18T04:27:37;100242.84;;;6.06;90.46
78313;BME280;67568;47.438;21.408;2023-11-18T04:30:04;100230.19;;;6.05;90.33
78313;BME280;67568;47.438;21.408;2023-11-18T04:32:31;100239.56;;;6.04;91.23
78313;BME280;67568;47.438;21.408;2023-11-18T04:34:59;100235.69;;;6.05;91.10
78313;BME280;67568;47.438;21.408;2023-11-18T04:37:26;100240.13;;;6.01;90.80
78313;BME280;67568;47.438;21.408;2023-11-18T04:39:52;100239.81;;;5.97;89.55
78313;BME280;67568;47.438;21.408;2023-11-18T04:42:19;100237.91;;;5.98;91.36
78313;BME280;67568;47.438;21.408;2023-11-18T04:44:46;100235.16;;;5.98;89.87
78313;BME280;67568;47.438;21.408;2023-11-18T04:47:12;100245.03;;;5.94;90.31
78313;BME280;67568;47.438;21.408;2023-11-18T04:49:39;100242.56;;;5.97;90.38
78313;BME280;67568;47.438;21.408;2023-11-18T04:52:06;100246.16;;;5.98;90.28
78313;BME280;67568;47.438;21.408;2023-11-18T04:54:32;100248.06;;;5.97;90.42
78313;BME280;67568;47.438;21.408;2023-11-18T04:56:59;100259.88;;;5.93;89.55
78313;BME280;67568;47.438;21.408;2023-11-18T04:59:26;100259.91;;;5.98;90.50
78313;BME280;67568;47.438;21.408;2023-11-18T05:01:53;100256.59;;;5.96;90.52
78313;BME280;67568;47.438;21.408;2023-11-18T05:04:20;100261.00;;;5.97;91.03
78313;BME280;67568;47.438;21.408;2023-11-18T05:06:47;100275.03;;;5.95;89.86
78313;BME280;67568;47.438;21.408;2023-11-18T05:09:13;100278.88;;;5.94;90.34
78313;BME280;67568;47.438;21.408;2023-11-18T05:11:40;100276.38;;;5.93;88.35
78313;BME280;67568;47.438;21.408;2023-11-18T05:14:07;100275.28;;;5.94;90.21
78313;BME280;67568;47.438;21.408;2023-11-18T05:16:33;100282.41;;;5.90;89.41
78313;BME280;67568;47.438;21.408;2023-11-18T05:19:00;100280.53;;;5.95;89.35
78313;BME280;67568;47.438;21.408;2023-11-18T05:21:27;100278.31;;;5.92;88.88
78313;BME280;67568;47.438;21.408;2023-11-18T05:23:54;100276.91;;;5.90;89.61
78313;BME280;67568;47.438;21.408;2023-11-18T05:26:20;100284.88;;;5.91;87.75
78313;BME280;67568;47.438;21.408;2023-11-18T05:28:47;100286.56;;;5.92;87.56
78313;BME280;67568;47.438;21.408;2023-11-18T05:31:15;100284.03;;;5.85;87.80
78313;BME280;67568;47.438;21.408;2023-11-18T05:33:43;100302.75;;;5.83;87.36
78313;BME280;67568;47.438;21.408;2023-11-18T05:36:10;100301.91;;;5.78;85.32
78313;BME280;67568;47.438;21.408;2023-11-18T05:38:36;100294.50;;;5.83;86.68
78313;BME280;67568;47.438;21.408;2023-11-18T05:41:03;100302.75;;;5.83;88.37
78313;BME280;67568;47.438;21.408;2023-11-18T05:43:31;100303.31;;;5.91;87.72
78313;BME280;67568;47.438;21.408;2023-11-18T05:45:58;100310.72;;;5.85;86.79
78313;BME280;67568;47.438;21.408;2023-11-18T05:48:25;100323.66;;;5.90;86.29
78313;BME280;67568;47.438;21.408;2023-11-18T05:50:51;100313.75;;;5.89;86.02
78313;BME280;67568;47.438;21.408;2023-11-18T05:53:18;100322.84;;;5.89;86.15
78313;BME280;67568;47.438;21.408;2023-11-18T05:55:45;100311.84;;;5.89;86.32
78313;BME280;67568;47.438;21.408;2023-11-18T05:58:12;100318.69;;;5.92;86.74
78313;BME280;67568;47.438;21.408;2023-11-18T06:00:39;100325.03;;;5.92;86.86
78313;BME280;67568;47.438;21.408;2023-11-18T06:03:07;100328.06;;;5.91;87.60
78313;BME280;67568;47.438;21.408;2023-11-18T06:05:34;100324.78;;;5.94;86.07
78313;BME280;67568;47.438;21.408;2023-11-18T06:08:01;100324.78;;;5.94;86.62
78313;BME280;67568;47.438;21.408;2023-11-18T06:10:27;100331.91;;;5.90;86.21
78313;BME280;67568;47.438;21.408;2023-11-18T06:12:54;100333.84;;;5.94;85.76
78313;BME280;67568;47.438;21.408;2023-11-18T06:15:21;100339.34;;;5.94;87.28
78313;BME280;67568;47.438;21.408;2023-11-18T06:17:47;100334.69;;;5.95;87.34
78313;BME280;67568;47.438;21.408;2023-11-18T06:20:14;100352.03;;;5.95;86.65
78313;BME280;67568;47.438;21.408;2023-11-18T06:22:41;100344.59;;;5.96;86.09
78313;BME280;67568;47.438;21.408;2023-11-18T06:25:08;100359.44;;;5.95;85.44
78313;BME280;67568;47.438;21.408;2023-11-18T06:27:35;100359.19;;;5.96;86.94
78313;BME280;67568;47.438;21.408;2023-11-18T06:30:02;100362.69;;;5.92;86.75
78313;BME280;67568;47.438;21.408;2023-11-18T06:32:29;100362.69;;;5.92;86.82
78313;BME280;67568;47.438;21.408;2023-11-18T06:34:55;100362.47;;;5.93;86.57
78313;BME280;67568;47.438;21.408;2023-11-18T06:37:22;100369.91;;;5.98;86.39
78313;BME280;67568;47.438;21.408;2023-11-18T06:39:49;100374.88;;;6.01;85.38
78313;BME280;67568;47.438;21.408;2023-11-18T06:42:16;100372.66;;;5.98;86.48
78313;BME280;67568;47.438;21.408;2023-11-18T06:44:42;100381.44;;;6.00;84.79
78313;BME280;67568;47.438;21.408;2023-11-18T06:47:09;100379.00;;;6.03;84.69
78313;BME280;67568;47.438;21.408;2023-11-18T06:49:36;100388.34;;;6.07;85.14
78313;BME280;67568;47.438;21.408;2023-11-18T06:52:03;100388.09;;;6.09;84.23
78313;BME280;67568;47.438;21.408;2023-11-18T06:54:30;100394.69;;;6.13;84.87
78313;BME280;67568;47.438;21.408;2023-11-18T06:56:57;100401.31;;;6.12;84.78
78313;BME280;67568;47.438;21.408;2023-11-18T06:59:23;100401.59;;;6.21;85.11
78313;BME280;67568;47.438;21.408;2023-11-18T07:01:50;100401.03;;;6.19;84.62
78313;BME280;67568;47.438;21.408;2023-11-18T07:04:17;100404.88;;;6.23;84.57
78313;BME280;67568;47.438;21.408;2023-11-18T07:06:44;100413.72;;;6.30;84.41
78313;BME280;67568;47.438;21.408;2023-11-18T07:09:11;100409.59;;;6.27;83.61
78313;BME280;67568;47.438;21.408;2023-11-18T07:11:39;100407.94;;;6.37;84.02
78313;BME280;67568;47.438;21.408;2023-11-18T07:14:10;100417.31;;;6.41;83.73
78313;BME280;67568;47.438;21.408;2023-11-18T07:16:41;100431.63;;;6.38;82.15
78313;BME280;67568;47.438;21.408;2023-11-18T07:19:08;100424.75;;;6.45;82.38
78313;BME280;67568;47.438;21.408;2023-11-18T07:21:35;100431.63;;;6.48;83.89
78313;BME280;67568;47.438;21.408;2023-11-18T07:24:01;100430.00;;;6.52;82.52
78313;BME280;67568;47.438;21.408;2023-11-18T07:26:28;100444.84;;;6.51;82.65
78313;BME280;67568;47.438;21.408;2023-11-18T07:28:55;100449.25;;;6.52;82.23
78313;BME280;67568;47.438;21.408;2023-11-18T07:31:22;100434.66;;;6.57;83.82
78313;BME280;67568;47.438;21.408;2023-11-18T07:33:49;100441.84;;;6.58;83.59
78313;BME280;67568;47.438;21.408;2023-11-18T07:36:18;100444.03;;;6.50;82.42
78313;BME280;67568;47.438;21.408;2023-11-18T07:38:46;100443.47;;;6.59;83.80
78313;BME280;67568;47.438;21.408;2023-11-18T07:41:13;100445.41;;;6.58;82.66
78313;BME280;67568;47.438;21.408;2023-11-18T07:43:40;100459.72;;;6.65;82.45
78313;BME280;67568;47.438;21.408;2023-11-18T07:46:07;100454.78;;;6.67;81.84
78313;BME280;67568;47.438;21.408;2023-11-18T07:48:34;100458.38;;;6.78;82.44
78313;BME280;67568;47.438;21.408;2023-11-18T07:51:00;100455.34;;;6.74;80.13
78313;BME280;67568;47.438;21.408;2023-11-18T07:53:27;100452.59;;;6.74;80.88
78313;BME280;67568;47.438;21.408;2023-11-18T07:55:54;100455.34;;;6.90;82.63
78313;BME280;67568;47.438;21.408;2023-11-18T07:58:21;100451.50;;;7.01;81.08
78313;BME280;67568;47.438;21.408;2023-11-18T08:00:47;100460.28;;;7.08;80.27
78313;BME280;67568;47.438;21.408;2023-11-18T08:03:14;100467.75;;;7.08;81.79
78313;BME280;67568;47.438;21.408;2023-11-18T08:05:44;100461.41;;;7.17;81.81
78313;BME280;67568;47.438;21.408;2023-11-18T08:08:13;100460.03;;;7.20;81.06
78313;BME280;67568;47.438;21.408;2023-11-18T08:10:41;100455.59;;;7.19;80.92
78313;BME280;67568;47.438;21.408;2023-11-18T08:13:08;100460.81;;;7.31;80.95
78313;BME280;67568;47.438;21.408;2023-11-18T08:15:38;100464.13;;;7.22;78.60
78313;BME280;67568;47.438;21.408;2023-11-18T08:18:05;100453.94;;;7.33;80.44
78313;BME280;67568;47.438;21.408;2023-11-18T08:20:32;100467.44;;;7.35;81.52
78313;BME280;67568;47.438;21.408;2023-11-18T08:22:59;100459.19;;;7.40;80.40
78313;BME280;67568;47.438;21.408;2023-11-18T08:25:26;100476.84;;;7.03;78.11
78313;BME280;67568;47.438;21.408;2023-11-18T08:27:53;100473.22;;;7.28;80.41
78313;BME280;67568;47.438;21.408;2023-11-18T08:30:20;100486.19;;;7.38;78.65
78313;BME280;67568;47.438;21.408;2023-11-18T08:32:46;100482.31;;;7.44;79.93
78313;BME280;67568;47.438;21.408;2023-11-18T08:35:14;100487.84;;;7.44;80.91
78313;BME280;67568;47.438;21.408;2023-11-18T08:37:42;100480.63;;;7.53;79.24
78313;BME280;67568;47.438;21.408;2023-11-18T08:40:10;100484.78;;;7.56;78.98
78313;BME280;67568;47.438;21.408;2023-11-18T08:42:36;100486.41;;;7.57;78.66
78313;BME280;67568;47.438;21.408;2023-11-18T08:45:03;100485.59;;;7.56;79.43
78313;BME280;67568;47.438;21.408;2023-11-18T08:47:32;100487.78;;;7.59;78.30
78313;BME280;67568;47.438;21.408;2023-11-18T08:49:59;100496.63;;;7.72;78.94
78313;BME280;67568;47.438;21.408;2023-11-18T08:52:26;100486.41;;;7.72;79.13
78313;BME280;67568;47.438;21.408;2023-11-18T08:54:53;100488.34;;;7.72;78.70
78313;BME280;67568;47.438;21.408;2023-11-18T08:57:19;100498.25;;;7.68;78.83
78313;BME280;67568;47.438;21.408;2023-11-18T08:59:46;100501.56;;;7.75;77.74
78313;BME280;67568;47.438;21.408;2023-11-18T09:02:13;100500.44;;;7.76;77.25
78313;BME280;67568;47.438;21.408;2023-11-18T09:04:40;100505.41;;;7.79;77.75
78313;BME280;67568;47.438;21.408;2023-11-18T09:07:06;100504.03;;;7.76;77.25
78313;BME280;67568;47.438;21.408;2023-11-18T09:09:33;100507.91;;;7.75;77.42
78313;BME280;67568;47.438;21.408;2023-11-18T09:12:00;100513.16;;;7.66;77.17
78313;BME280;67568;47.438;21.408;2023-11-18T09:14:26;100522.53;;;7.65;77.54
78313;BME280;67568;47.438;21.408;2023-11-18T09:16:53;100517.59;;;7.57;76.95
78313;BME280;67568;47.438;21.408;2023-11-18T09:19:21;100517.31;;;7.64;79.29
78313;BME280;67568;47.438;21.408;2023-11-18T09:21:48;100515.38;;;7.59;78.13
78313;BME280;67568;47.438;21.408;2023-11-18T09:24:15;100519.25;;;7.63;77.31
78313;BME280;67568;47.438;21.408;2023-11-18T09:26:41;100519.78;;;7.50;77.02
78313;BME280;67568;47.438;21.408;2023-11-18T09:29:08;100519.25;;;7.63;77.01
78313;BME280;67568;47.438;21.408;2023-11-18T09:31:35;100531.38;;;7.57;76.68
78313;BME280;67568;47.438;21.408;2023-11-18T09:34:03;100534.66;;;7.59;77.01
78313;BME280;67568;47.438;21.408;2023-11-18T09:36:29;100531.94;;;7.54;77.32
78313;BME280;67568;47.438;21.408;2023-11-18T09:38:56;100534.16;;;7.52;76.11
78313;BME280;67568;47.438;21.408;2023-11-18T09:41:23;100534.97;;;7.63;77.17
78313;BME280;67568;47.438;21.408;2023-11-18T09:43:50;100541.28;;;7.63;77.72
78313;BME280;67568;47.438;21.408;2023-11-18T09:46:22;100535.50;;;7.65;77.66
78313;BME280;67568;47.438;21.408;2023-11-18T09:48:51;100542.69;;;7.66;76.60
78313;BME280;67568;47.438;21.408;2023-11-18T09:51:28;100536.59;;;7.59;77.89
78313;BME280;67568;47.438;21.408;2023-11-18T09:53:59;100549.00;;;7.66;76.95
78313;BME280;67568;47.438;21.408;2023-11-18T09:59:32;100545.19;;;7.32;76.22
78313;BME280;67568;47.438;21.408;2023-11-18T10:02:01;100541.59;;;7.47;75.34
78313;BME280;67568;47.438;21.408;2023-11-18T10:04:30;100533.88;;;7.38;73.88
78313;BME280;67568;47.438;21.408;2023-11-18T10:06:58;100534.41;;;7.46;75.24
78313;BME280;67568;47.438;21.408;2023-11-18T10:09:29;100528.63;;;7.42;75.05
78313;BME280;67568;47.438;21.408;2023-11-18T10:11:55;100523.94;;;7.53;75.28
78313;BME280;67568;47.438;21.408;2023-11-18T10:14:22;100523.13;;;7.57;74.72
78313;BME280;67568;47.438;21.408;2023-11-18T10:16:49;100522.56;;;7.30;70.53
78313;BME280;67568;47.438;21.408;2023-11-18T10:19:16;100538.00;;;7.41;73.91
78313;BME280;67568;47.438;21.408;2023-11-18T10:21:43;100518.19;;;7.29;72.89
78313;BME280;67568;47.438;21.408;2023-11-18T10:24:09;100526.97;;;7.31;71.79
78313;BME280;67568;47.438;21.408;2023-11-18T10:26:36;100520.34;;;7.37;72.13
78313;BME280;67568;47.438;21.408;2023-11-18T10:29:04;100519.81;;;7.35;70.56
78313;BME280;67568;47.438;21.408;2023-11-18T10:31:30;100522.00;;;7.48;71.01
78313;BME280;67568;47.438;21.408;2023-11-18T10:33:57;100521.44;;;7.51;71.27
78313;BME280;67568;47.438;21.408;2023-11-18T10:36:27;100527.50;;;7.53;71.74
78313;BME280;67568;47.438;21.408;2023-11-18T10:38:54;100520.09;;;7.28;69.56
78313;BME280;67568;47.438;21.408;2023-11-18T10:41:21;100524.78;;;7.43;68.31
78313;BME280;67568;47.438;21.408;2023-11-18T10:43:48;100518.13;;;7.59;70.71
78313;BME280;67568;47.438;21.408;2023-11-18T10:46:16;100530.28;;;7.58;69.59
78313;BME280;67568;47.438;21.408;2023-11-18T10:48:47;100525.56;;;7.59;69.91
78313;BME280;67568;47.438;21.408;2023-11-18T10:51:16;100530.28;;;7.53;68.83
78313;BME280;67568;47.438;21.408;2023-11-18T10:53:43;100530.81;;;7.60;70.26
78313;BME280;67568;47.438;21.408;2023-11-18T10:56:17;100534.66;;;7.70;70.31
78313;BME280;67568;47.438;21.408;2023-11-18T10:58:43;100541.25;;;7.74;70.85
78313;BME280;67568;47.438;21.408;2023-11-18T11:01:10;100542.97;;;7.34;69.44
78313;BME280;67568;47.438;21.408;2023-11-18T11:03:57;100551.78;;;7.46;70.81
78313;BME280;67568;47.438;21.408;2023-11-18T11:06:28;100551.25;;;7.49;71.33
78313;BME280;67568;47.438;21.408;2023-11-18T11:08:54;100552.63;;;7.47;71.58
78313;BME280;67568;47.438;21.408;2023-11-18T11:11:22;100566.09;;;7.48;70.41
78313;BME280;67568;47.438;21.408;2023-11-18T11:13:49;100555.09;;;7.63;71.81
78313;BME280;67568;47.438;21.408;2023-11-18T11:16:19;100559.50;;;7.54;71.40
78313;BME280;67568;47.438;21.408;2023-11-18T11:18:55;100569.97;;;7.73;71.34
78313;BME280;67568;47.438;21.408;2023-11-18T11:21:26;100562.25;;;7.70;72.06
78313;BME280;67568;47.438;21.408;2023-11-18T11:23:55;100570.81;;;7.63;70.95
78313;BME280;67568;47.438;21.408;2023-11-18T11:32:25;100587.63;;;7.72;71.41
78313;BME280;67568;47.438;21.408;2023-11-18T11:34:56;100601.97;;;7.43;70.70
78313;BME280;67568;47.438;21.408;2023-11-18T11:37:25;100593.69;;;7.53;72.37
78313;BME280;67568;47.438;21.408;2023-11-18T11:39:53;100603.63;;;7.44;72.07
78313;BME280;67568;47.438;21.408;2023-11-18T11:42:20;100603.59;;;7.34;73.25
78313;BME280;67568;47.438;21.408;2023-11-18T11:44:50;100619.59;;;7.47;74.39
78313;BME280;67568;47.438;21.408;2023-11-18T11:47:17;100617.97;;;7.46;73.99
78313;BME280;67568;47.438;21.408;2023-11-18T11:50:16;100623.72;;;7.39;75.08
78313;BME280;67568;47.438;21.408;2023-11-18T11:52:46;100628.13;;;7.30;76.03
78313;BME280;67568;47.438;21.408;2023-11-18T11:57:50;100638.00;;;7.01;76.54
78313;BME280;67568;47.438;21.408;2023-11-18T12:00:17;100629.41;;;6.82;77.23
78313;BME280;67568;47.438;21.408;2023-11-18T12:02:51;100636.84;;;6.81;78.30
78313;BME280;67568;47.438;21.408;2023-11-18T12:05:27;100644.56;;;6.84;79.45
78313;BME280;67568;47.438;21.408;2023-11-18T12:07:55;100650.91;;;6.90;78.76
78313;BME280;67568;47.438;21.408;2023-11-18T12:10:51;100647.94;;;7.12;78.62
78313;BME280;67568;47.438;21.408;2023-11-18T12:13:19;100645.91;;;6.82;78.50
78313;BME280;67568;47.438;21.408;2023-11-18T12:15:53;100655.50;;;6.64;77.71
78313;BME280;67568;47.438;21.408;2023-11-18T12:18:21;100660.13;;;6.53;79.01
78313;BME280;67568;47.438;21.408;2023-11-18T12:20:48;100659.56;;;6.56;80.50
78313;BME280;67568;47.438;21.408;2023-11-18T12:23:15;100654.50;;;6.33;79.97
78313;BME280;67568;47.438;21.408;2023-11-18T12:25:43;100664.69;;;6.32;80.35
78313;BME280;67568;47.438;21.408;2023-11-18T12:28:31;100663.28;;;6.29;79.78
78313;BME280;67568;47.438;21.408;2023-11-18T12:30:58;100664.44;;;6.39;80.78
78313;BME280;67568;47.438;21.408;2023-11-18T12:33:26;100660.59;;;6.40;80.83
78313;BME280;67568;47.438;21.408;2023-11-18T12:36:37;100671.06;;;6.38;81.26
78313;BME280;67568;47.438;21.408;2023-11-18T12:42:04;100674.47;;;6.65;80.19
78313;BME280;67568;47.438;21.408;2023-11-18T12:44:36;100670.94;;;6.70;79.87
78313;BME280;67568;47.438;21.408;2023-11-18T12:47:04;100673.63;;;6.60;81.18
78313;BME280;67568;47.438;21.408;2023-11-18T12:49:31;100679.59;;;6.41;78.99
78313;BME280;67568;47.438;21.408;2023-11-18T12:52:03;100682.81;;;6.81;80.68
78313;BME280;67568;47.438;21.408;2023-11-18T12:54:30;100680.16;;;6.48;80.07
78313;BME280;67568;47.438;21.408;2023-11-18T12:57:00;100681.66;;;6.71;80.26
78313;BME280;67568;47.438;21.408;2023-11-18T12:59:27;100682.72;;;6.60;79.08
78313;BME280;67568;47.438;21.408;2023-11-18T13:01:54;100695.31;;;6.51;80.27
78313;BME280;67568;47.438;21.408;2023-11-18T13:04:21;100695.41;;;6.61;79.85
78313;BME280;67568;47.438;21.408;2023-11-18T13:06:48;100693.97;;;6.53;80.87
78313;BME280;67568;47.438;21.408;2023-11-18T13:09:16;100705.81;;;6.54;81.34